sensor_id;sensor_type;location;lat;lon;timestamp;temperature;humidity
18085;DHT22;9169;44.492;11.372;2023-02-23T00:02:18;15.80;56.50
18085;DHT22;9169;44.492;11.372;2023-02-23T00:04:46;15.80;56.60
18085;DHT22;9169;44.492;11.372;2023-02-23T00:07:14;15.80;56.50
18085;DHT22;9169;44.492;11.372;2023-02-23T00:09:46;15.70;56.50
18085;DHT22;9169;44.492;11.372;2023-02-23T00:12:14;15.70;56.60
18085;DHT22;9169;44.492;11.372;2023-02-23T00:14:43;15.70;56.70
18085;DHT22;9169;44.492;11.372;2023-02-23T00:17:12;15.70;56.70
18085;DHT22;9169;44.492;11.372;2023-02-23T00:19:46;15.60;56.70
18085;DHT22;9169;44.492;11.372;2023-02-23T00:22:15;15.60;56.90
18085;DHT22;9169;44.492;11.372;2023-02-23T00:24:44;15.60;56.90
18085;DHT22;9169;44.492;11.372;2023-02-23T00:27:13;15.60;57.00
18085;DHT22;9169;44.492;11.372;2023-02-23T00:29:44;15.60;57.10
18085;DHT22;9169;44.492;11.372;2023-02-23T00:32:17;15.60;57.10
18085;DHT22;9169;44.492;11.372;2023-02-23T00:34:46;15.50;57.20
18085;DHT22;9169;44.492;11.372;2023-02-23T00:37:16;15.50;57.30
18085;DHT22;9169;44.492;11.372;2023-02-23T00:39:47;15.50;57.30
18085;DHT22;9169;44.492;11.372;2023-02-23T00:42:15;15.50;57.40
18085;DHT22;9169;44.492;11.372;2023-02-23T00:44:44;15.40;57.50
18085;DHT22;9169;44.492;11.372;2023-02-23T00:47:16;15.40;57.50
18085;DHT22;9169;44.492;11.372;2023-02-23T00:49:44;15.40;57.60
18085;DHT22;9169;44.492;11.372;2023-02-23T00:52:12;15.50;57.70
18085;DHT22;9169;44.492;11.372;2023-02-23T00:54:41;15.40;57.60
18085;DHT22;9169;44.492;11.372;2023-02-23T00:57:10;15.40;57.70
18085;DHT22;9169;44.492;11.372;2023-02-23T00:59:38;15.30;57.80
18085;DHT22;9169;44.492;11.372;2023-02-23T01:02:06;15.30;57.80
18085;DHT22;9169;44.492;11.372;2023-02-23T01:04:36;15.30;57.80
18085;DHT22;9169;44.492;11.372;2023-02-23T01:07:04;15.30;57.80
18085;DHT22;9169;44.492;11.372;2023-02-23T01:09:33;15.30;57.80
18085;DHT22;9169;44.492;11.372;2023-02-23T01:12:03;15.20;57.80
18085;DHT22;9169;44.492;11.372;2023-02-23T01:14:34;15.20;57.90
18085;DHT22;9169;44.492;11.372;2023-02-23T01:17:03;15.20;58.00
18085;DHT22;9169;44.492;11.372;2023-02-23T01:19:32;15.20;58.10
18085;DHT22;9169;44.492;11.372;2023-02-23T01:22:04;15.10;58.10
18085;DHT22;9169;44.492;11.372;2023-02-23T01:24:32;15.10;58.30
18085;DHT22;9169;44.492;11.372;2023-02-23T01:27:04;15.10;58.30
18085;DHT22;9169;44.492;11.372;2023-02-23T01:29:33;15.10;58.30
18085;DHT22;9169;44.492;11.372;2023-02-23T01:32:01;15.00;58.30
18085;DHT22;9169;44.492;11.372;2023-02-23T01:34:31;15.00;58.40
18085;DHT22;9169;44.492;11.372;2023-02-23T01:36:59;15.00;58.50
18085;DHT22;9169;44.492;11.372;2023-02-23T01:39:31;14.90;58.60
18085;DHT22;9169;44.492;11.372;2023-02-23T01:42:02;14.90;58.70
18085;DHT22;9169;44.492;11.372;2023-02-23T01:47:49;14.90;58.70
18085;DHT22;9169;44.492;11.372;2023-02-23T01:50:21;14.90;58.50
18085;DHT22;9169;44.492;11.372;2023-02-23T01:52:51;14.90;58.70
18085;DHT22;9169;44.492;11.372;2023-02-23T01:55:22;14.90;58.60
18085;DHT22;9169;44.492;11.372;2023-02-23T01:57:54;14.90;58.70
18085;DHT22;9169;44.492;11.372;2023-02-23T02:00:25;14.80;59.10
18085;DHT22;9169;44.492;11.372;2023-02-23T02:02:54;14.80;58.50
18085;DHT22;9169;44.492;11.372;2023-02-23T02:05:27;14.80;58.50
18085;DHT22;9169;44.492;11.372;2023-02-23T02:07:57;14.80;58.60
18085;DHT22;9169;44.492;11.372;2023-02-23T02:10:28;14.80;58.60
18085;DHT22;9169;44.492;11.372;2023-02-23T02:13:19;14.80;58.70
18085;DHT22;9169;44.492;11.372;2023-02-23T02:16:16;14.70;58.70
18085;DHT22;9169;44.492;11.372;2023-02-23T02:19:05;14.70;58.80
18085;DHT22;9169;44.492;11.372;2023-02-23T02:22:05;14.70;58.90
18085;DHT22;9169;44.492;11.372;2023-02-23T02:25:07;14.70;58.90
18085;DHT22;9169;44.492;11.372;2023-02-23T02:33:53;14.70;58.90
18085;DHT22;9169;44.492;11.372;2023-02-23T02:37:07;14.70;59.00
18085;DHT22;9169;44.492;11.372;2023-02-23T02:39:43;14.80;59.00
18085;DHT22;9169;44.492;11.372;2023-02-23T02:42:19;14.80;59.00
18085;DHT22;9169;44.492;11.372;2023-02-23T02:44:53;14.80;59.30
18085;DHT22;9169;44.492;11.372;2023-02-23T02:47:27;14.80;59.50
18085;DHT22;9169;44.492;11.372;2023-02-23T02:50:02;14.70;59.40
18085;DHT22;9169;44.492;11.372;2023-02-23T02:52:38;14.80;59.50
18085;DHT22;9169;44.492;11.372;2023-02-23T02:55:13;14.80;59.50
18085;DHT22;9169;44.492;11.372;2023-02-23T02:57:44;14.80;59.70
18085;DHT22;9169;44.492;11.372;2023-02-23T03:00:17;14.80;59.80
18085;DHT22;9169;44.492;11.372;2023-02-23T03:03:03;14.80;59.90
18085;DHT22;9169;44.492;11.372;2023-02-23T03:05:51;14.80;59.80
18085;DHT22;9169;44.492;11.372;2023-02-23T03:08:47;14.80;59.90
18085;DHT22;9169;44.492;11.372;2023-02-23T03:11:38;14.80;59.90
18085;DHT22;9169;44.492;11.372;2023-02-23T03:14:33;14.80;60.00
18085;DHT22;9169;44.492;11.372;2023-02-23T03:17:29;14.80;60.00
18085;DHT22;9169;44.492;11.372;2023-02-23T03:20:23;14.80;60.10
18085;DHT22;9169;44.492;11.372;2023-02-23T03:23:16;14.80;60.10
18085;DHT22;9169;44.492;11.372;2023-02-23T03:26:09;14.70;60.00
18085;DHT22;9169;44.492;11.372;2023-02-23T03:29:01;14.70;60.00
18085;DHT22;9169;44.492;11.372;2023-02-23T03:31:54;14.70;60.00
18085;DHT22;9169;44.492;11.372;2023-02-23T03:34:50;14.70;59.90
18085;DHT22;9169;44.492;11.372;2023-02-23T03:37:43;14.70;59.90
18085;DHT22;9169;44.492;11.372;2023-02-23T03:40:34;14.80;60.00
18085;DHT22;9169;44.492;11.372;2023-02-23T03:43:24;14.70;60.00
18085;DHT22;9169;44.492;11.372;2023-02-23T03:46:13;14.70;59.90
18085;DHT22;9169;44.492;11.372;2023-02-23T03:49:03;14.80;60.00
18085;DHT22;9169;44.492;11.372;2023-02-23T03:51:52;14.80;59.90
18085;DHT22;9169;44.492;11.372;2023-02-23T03:54:44;14.80;59.80
18085;DHT22;9169;44.492;11.372;2023-02-23T03:57:34;14.80;60.00
18085;DHT22;9169;44.492;11.372;2023-02-23T04:00:26;14.70;59.80
18085;DHT22;9169;44.492;11.372;2023-02-23T04:03:15;14.70;59.80
18085;DHT22;9169;44.492;11.372;2023-02-23T04:06:03;14.70;59.80
18085;DHT22;9169;44.492;11.372;2023-02-23T04:08:51;14.60;59.70
18085;DHT22;9169;44.492;11.372;2023-02-23T04:11:44;14.50;59.70
18085;DHT22;9169;44.492;11.372;2023-02-23T04:14:37;14.50;59.80
18085;DHT22;9169;44.492;11.372;2023-02-23T04:17:08;14.40;59.70
18085;DHT22;9169;44.492;11.372;2023-02-23T04:19:36;14.40;59.80
18085;DHT22;9169;44.492;11.372;2023-02-23T04:22:04;14.40;59.80
18085;DHT22;9169;44.492;11.372;2023-02-23T04:24:33;14.40;59.80
18085;DHT22;9169;44.492;11.372;2023-02-23T04:27:01;14.40;59.80
18085;DHT22;9169;44.492;11.372;2023-02-23T04:29:30;14.40;59.80
18085;DHT22;9169;44.492;11.372;2023-02-23T04:31:58;14.40;59.90
18085;DHT22;9169;44.492;11.372;2023-02-23T04:34:28;14.40;60.00
18085;DHT22;9169;44.492;11.372;2023-02-23T04:36:56;14.40;60.10
18085;DHT22;9169;44.492;11.372;2023-02-23T04:39:25;14.40;60.00
18085;DHT22;9169;44.492;11.372;2023-02-23T04:41:53;14.40;60.00
18085;DHT22;9169;44.492;11.372;2023-02-23T04:44:22;14.40;60.10
18085;DHT22;9169;44.492;11.372;2023-02-23T04:46:50;14.40;60.00
18085;DHT22;9169;44.492;11.372;2023-02-23T04:49:19;14.40;60.00
18085;DHT22;9169;44.492;11.372;2023-02-23T04:51:48;14.50;59.90
18085;DHT22;9169;44.492;11.372;2023-02-23T04:54:17;14.50;59.70
18085;DHT22;9169;44.492;11.372;2023-02-23T04:56:45;14.50;59.90
18085;DHT22;9169;44.492;11.372;2023-02-23T04:59:14;14.50;59.30
18085;DHT22;9169;44.492;11.372;2023-02-23T05:01:42;14.50;59.10
18085;DHT22;9169;44.492;11.372;2023-02-23T05:04:10;14.60;59.00
18085;DHT22;9169;44.492;11.372;2023-02-23T05:06:39;14.60;58.70
18085;DHT22;9169;44.492;11.372;2023-02-23T05:09:10;14.60;58.50
18085;DHT22;9169;44.492;11.372;2023-02-23T05:11:38;14.60;58.50
18085;DHT22;9169;44.492;11.372;2023-02-23T05:14:07;14.60;58.30
18085;DHT22;9169;44.492;11.372;2023-02-23T05:16:36;14.60;58.30
18085;DHT22;9169;44.492;11.372;2023-02-23T05:19:04;14.60;58.20
18085;DHT22;9169;44.492;11.372;2023-02-23T05:21:33;14.60;58.20
18085;DHT22;9169;44.492;11.372;2023-02-23T05:24:01;14.60;58.20
18085;DHT22;9169;44.492;11.372;2023-02-23T05:26:31;14.60;58.20
18085;DHT22;9169;44.492;11.372;2023-02-23T05:28:59;14.70;58.30
18085;DHT22;9169;44.492;11.372;2023-02-23T05:31:28;14.70;58.30
18085;DHT22;9169;44.492;11.372;2023-02-23T05:33:56;14.60;58.30
18085;DHT22;9169;44.492;11.372;2023-02-23T05:36:25;14.70;58.40
18085;DHT22;9169;44.492;11.372;2023-02-23T05:38:53;14.70;58.50
18085;DHT22;9169;44.492;11.372;2023-02-23T05:41:22;14.70;58.50
18085;DHT22;9169;44.492;11.372;2023-02-23T05:43:54;14.70;58.50
18085;DHT22;9169;44.492;11.372;2023-02-23T05:46:24;14.70;58.50
18085;DHT22;9169;44.492;11.372;2023-02-23T05:48:55;14.70;58.60
18085;DHT22;9169;44.492;11.372;2023-02-23T05:51:25;14.70;58.80
18085;DHT22;9169;44.492;11.372;2023-02-23T05:53:53;14.60;58.80
18085;DHT22;9169;44.492;11.372;2023-02-23T05:56:23;14.60;58.90
18085;DHT22;9169;44.492;11.372;2023-02-23T05:58:55;14.60;59.00
18085;DHT22;9169;44.492;11.372;2023-02-23T06:01:25;14.60;59.20
18085;DHT22;9169;44.492;11.372;2023-02-23T06:03:54;14.60;59.30
18085;DHT22;9169;44.492;11.372;2023-02-23T06:06:22;14.60;59.50
18085;DHT22;9169;44.492;11.372;2023-02-23T06:08:51;14.70;59.60
18085;DHT22;9169;44.492;11.372;2023-02-23T06:11:20;14.60;59.70
18085;DHT22;9169;44.492;11.372;2023-02-23T06:13:48;14.60;59.70
18085;DHT22;9169;44.492;11.372;2023-02-23T06:16:18;14.60;59.80
18085;DHT22;9169;44.492;11.372;2023-02-23T06:18:47;14.60;59.70
18085;DHT22;9169;44.492;11.372;2023-02-23T06:21:15;14.60;59.60
18085;DHT22;9169;44.492;11.372;2023-02-23T06:23:44;14.60;59.60
18085;DHT22;9169;44.492;11.372;2023-02-23T06:26:12;14.60;59.60
18085;DHT22;9169;44.492;11.372;2023-02-23T06:28:41;14.60;59.70
18085;DHT22;9169;44.492;11.372;2023-02-23T06:31:10;14.60;59.80
18085;DHT22;9169;44.492;11.372;2023-02-23T06:33:40;14.50;59.70
18085;DHT22;9169;44.492;11.372;2023-02-23T06:36:08;14.50;59.60
18085;DHT22;9169;44.492;11.372;2023-02-23T06:38:37;14.60;59.60
18085;DHT22;9169;44.492;11.372;2023-02-23T06:41:06;14.60;59.60
18085;DHT22;9169;44.492;11.372;2023-02-23T06:43:35;14.60;59.50
18085;DHT22;9169;44.492;11.372;2023-02-23T06:46:04;14.60;59.40
18085;DHT22;9169;44.492;11.372;2023-02-23T06:48:32;14.60;59.40
18085;DHT22;9169;44.492;11.372;2023-02-23T06:51:03;14.70;59.50
18085;DHT22;9169;44.492;11.372;2023-02-23T06:53:31;14.70;59.50
18085;DHT22;9169;44.492;11.372;2023-02-23T06:56:00;14.70;59.50
18085;DHT22;9169;44.492;11.372;2023-02-23T06:58:29;14.70;59.30
18085;DHT22;9169;44.492;11.372;2023-02-23T07:00:58;14.70;59.20
18085;DHT22;9169;44.492;11.372;2023-02-23T07:03:26;14.70;59.00
18085;DHT22;9169;44.492;11.372;2023-02-23T07:05:54;14.70;58.90
18085;DHT22;9169;44.492;11.372;2023-02-23T07:08:24;14.70;58.80
18085;DHT22;9169;44.492;11.372;2023-02-23T07:10:52;14.70;58.70
18085;DHT22;9169;44.492;11.372;2023-02-23T07:13:22;14.70;58.60
18085;DHT22;9169;44.492;11.372;2023-02-23T07:15:55;14.70;58.60
18085;DHT22;9169;44.492;11.372;2023-02-23T07:18:24;14.70;58.60
18085;DHT22;9169;44.492;11.372;2023-02-23T07:20:52;14.70;58.60
18085;DHT22;9169;44.492;11.372;2023-02-23T07:23:20;14.70;58.60
18085;DHT22;9169;44.492;11.372;2023-02-23T07:25:50;14.70;58.60
18085;DHT22;9169;44.492;11.372;2023-02-23T07:28:19;14.70;58.60
18085;DHT22;9169;44.492;11.372;2023-02-23T07:30:47;14.70;58.60
18085;DHT22;9169;44.492;11.372;2023-02-23T07:33:16;14.80;58.80
18085;DHT22;9169;44.492;11.372;2023-02-23T07:35:44;14.80;58.80
18085;DHT22;9169;44.492;11.372;2023-02-23T07:38:13;14.80;58.80
18085;DHT22;9169;44.492;11.372;2023-02-23T07:40:41;14.80;58.80
18085;DHT22;9169;44.492;11.372;2023-02-23T07:43:11;14.80;58.70
18085;DHT22;9169;44.492;11.372;2023-02-23T07:45:39;14.90;58.80
18085;DHT22;9169;44.492;11.372;2023-02-23T07:48:08;14.90;58.70
18085;DHT22;9169;44.492;11.372;2023-02-23T07:50:38;14.90;58.70
18085;DHT22;9169;44.492;11.372;2023-02-23T07:53:07;15.00;58.80
18085;DHT22;9169;44.492;11.372;2023-02-23T07:55:35;15.00;58.70
18085;DHT22;9169;44.492;11.372;2023-02-23T07:58:05;15.00;58.70
18085;DHT22;9169;44.492;11.372;2023-02-23T08:00:35;15.10;58.80
18085;DHT22;9169;44.492;11.372;2023-02-23T08:03:05;15.20;58.90
18085;DHT22;9169;44.492;11.372;2023-02-23T08:05:33;15.30;58.80
18085;DHT22;9169;44.492;11.372;2023-02-23T08:08:02;15.30;58.90
18085;DHT22;9169;44.492;11.372;2023-02-23T08:10:31;15.40;58.90
18085;DHT22;9169;44.492;11.372;2023-02-23T08:12:59;15.50;58.70
18085;DHT22;9169;44.492;11.372;2023-02-23T08:15:28;15.60;58.50
18085;DHT22;9169;44.492;11.372;2023-02-23T08:17:59;15.60;58.40
18085;DHT22;9169;44.492;11.372;2023-02-23T08:20:27;15.70;58.40
18085;DHT22;9169;44.492;11.372;2023-02-23T08:22:56;15.80;58.40
18085;DHT22;9169;44.492;11.372;2023-02-23T08:25:25;15.80;58.30
18085;DHT22;9169;44.492;11.372;2023-02-23T08:27:54;15.80;58.20
18085;DHT22;9169;44.492;11.372;2023-02-23T08:30:23;15.90;58.30
18085;DHT22;9169;44.492;11.372;2023-02-23T08:32:51;15.90;58.20
18085;DHT22;9169;44.492;11.372;2023-02-23T08:35:21;16.00;58.20
18085;DHT22;9169;44.492;11.372;2023-02-23T08:37:50;16.00;58.20
18085;DHT22;9169;44.492;11.372;2023-02-23T08:40:18;16.10;58.20
18085;DHT22;9169;44.492;11.372;2023-02-23T08:42:46;16.10;58.20
18085;DHT22;9169;44.492;11.372;2023-02-23T08:45:18;16.20;58.20
18085;DHT22;9169;44.492;11.372;2023-02-23T08:47:46;16.20;58.10
18085;DHT22;9169;44.492;11.372;2023-02-23T08:50:15;16.30;58.10
18085;DHT22;9169;44.492;11.372;2023-02-23T08:52:45;16.40;58.20
18085;DHT22;9169;44.492;11.372;2023-02-23T08:55:13;16.40;58.00
18085;DHT22;9169;44.492;11.372;2023-02-23T08:57:44;16.50;57.90
18085;DHT22;9169;44.492;11.372;2023-02-23T09:00:13;16.60;57.60
18085;DHT22;9169;44.492;11.372;2023-02-23T09:02:43;16.70;57.50
18085;DHT22;9169;44.492;11.372;2023-02-23T09:05:14;16.70;57.40
18085;DHT22;9169;44.492;11.372;2023-02-23T09:07:45;16.80;57.40
18085;DHT22;9169;44.492;11.372;2023-02-23T09:10:18;16.80;57.20
18085;DHT22;9169;44.492;11.372;2023-02-23T09:12:50;16.90;57.20
18085;DHT22;9169;44.492;11.372;2023-02-23T09:15:19;17.00;57.20
18085;DHT22;9169;44.492;11.372;2023-02-23T09:17:47;17.10;57.10
18085;DHT22;9169;44.492;11.372;2023-02-23T09:20:16;17.20;56.60
18085;DHT22;9169;44.492;11.372;2023-02-23T09:22:46;17.20;56.30
18085;DHT22;9169;44.492;11.372;2023-02-23T09:25:16;17.30;56.20
18085;DHT22;9169;44.492;11.372;2023-02-23T09:27:48;17.30;56.00
18085;DHT22;9169;44.492;11.372;2023-02-23T09:30:17;17.30;55.80
18085;DHT22;9169;44.492;11.372;2023-02-23T09:32:47;17.30;55.50
18085;DHT22;9169;44.492;11.372;2023-02-23T09:35:16;17.30;55.30
18085;DHT22;9169;44.492;11.372;2023-02-23T09:37:48;17.30;55.20
18085;DHT22;9169;44.492;11.372;2023-02-23T09:40:21;17.30;55.10
18085;DHT22;9169;44.492;11.372;2023-02-23T09:42:57;17.30;55.00
18085;DHT22;9169;44.492;11.372;2023-02-23T09:45:34;17.30;55.20
18085;DHT22;9169;44.492;11.372;2023-02-23T09:48:10;17.30;55.10
18085;DHT22;9169;44.492;11.372;2023-02-23T09:50:41;17.30;55.20
18085;DHT22;9169;44.492;11.372;2023-02-23T09:53:24;17.20;55.00
18085;DHT22;9169;44.492;11.372;2023-02-23T09:55:56;17.20;55.20
18085;DHT22;9169;44.492;11.372;2023-02-23T09:58:26;17.30;55.30
18085;DHT22;9169;44.492;11.372;2023-02-23T10:01:16;17.30;55.30
18085;DHT22;9169;44.492;11.372;2023-02-23T10:03:52;17.40;55.30
18085;DHT22;9169;44.492;11.372;2023-02-23T10:06:21;17.40;55.30
18085;DHT22;9169;44.492;11.372;2023-02-23T10:09:01;17.50;55.30
18085;DHT22;9169;44.492;11.372;2023-02-23T10:11:35;17.50;55.20
18085;DHT22;9169;44.492;11.372;2023-02-23T10:14:19;17.60;55.10
18085;DHT22;9169;44.492;11.372;2023-02-23T10:17:00;17.60;55.00
18085;DHT22;9169;44.492;11.372;2023-02-23T10:19:38;17.50;55.00
18085;DHT22;9169;44.492;11.372;2023-02-23T10:22:11;17.50;55.20
18085;DHT22;9169;44.492;11.372;2023-02-23T10:24:46;17.60;55.40
18085;DHT22;9169;44.492;11.372;2023-02-23T10:27:19;17.60;55.30
18085;DHT22;9169;44.492;11.372;2023-02-23T10:29:50;17.50;55.30
18085;DHT22;9169;44.492;11.372;2023-02-23T10:32:24;17.60;55.50
18085;DHT22;9169;44.492;11.372;2023-02-23T10:34:55;17.60;55.60
18085;DHT22;9169;44.492;11.372;2023-02-23T10:37:24;17.60;55.60
18085;DHT22;9169;44.492;11.372;2023-02-23T10:39:54;17.70;55.70
18085;DHT22;9169;44.492;11.372;2023-02-23T10:42:25;17.80;55.80
18085;DHT22;9169;44.492;11.372;2023-02-23T10:44:55;17.80;55.80
18085;DHT22;9169;44.492;11.372;2023-02-23T10:47:26;17.70;55.90
18085;DHT22;9169;44.492;11.372;2023-02-23T10:50:13;17.70;56.00
18085;DHT22;9169;44.492;11.372;2023-02-23T10:52:45;17.70;56.10
18085;DHT22;9169;44.492;11.372;2023-02-23T10:55:22;17.80;56.20
18085;DHT22;9169;44.492;11.372;2023-02-23T10:58:06;17.80;56.20
18085;DHT22;9169;44.492;11.372;2023-02-23T11:00:37;17.80;56.10
18085;DHT22;9169;44.492;11.372;2023-02-23T11:03:16;17.80;55.90
18085;DHT22;9169;44.492;11.372;2023-02-23T11:05:47;17.80;56.00
18085;DHT22;9169;44.492;11.372;2023-02-23T11:08:25;17.90;56.30
18085;DHT22;9169;44.492;11.372;2023-02-23T11:11:03;17.90;56.60
18085;DHT22;9169;44.492;11.372;2023-02-23T11:13:37;18.00;56.70
18085;DHT22;9169;44.492;11.372;2023-02-23T11:16:09;18.10;56.90
18085;DHT22;9169;44.492;11.372;2023-02-23T11:18:40;18.20;57.30
18085;DHT22;9169;44.492;11.372;2023-02-23T11:21:11;18.30;56.60
18085;DHT22;9169;44.492;11.372;2023-02-23T11:23:40;18.40;56.60
18085;DHT22;9169;44.492;11.372;2023-02-23T11:26:32;18.40;56.40
18085;DHT22;9169;44.492;11.372;2023-02-23T11:29:11;18.50;56.30
18085;DHT22;9169;44.492;11.372;2023-02-23T11:31:46;18.60;56.30
18085;DHT22;9169;44.492;11.372;2023-02-23T11:34:22;18.70;56.00
18085;DHT22;9169;44.492;11.372;2023-02-23T11:37:01;18.70;55.80
18085;DHT22;9169;44.492;11.372;2023-02-23T11:39:29;18.70;55.90
18085;DHT22;9169;44.492;11.372;2023-02-23T11:42:13;18.80;56.00
18085;DHT22;9169;44.492;11.372;2023-02-23T11:44:42;18.80;56.00
18085;DHT22;9169;44.492;11.372;2023-02-23T11:47:16;18.80;55.80
18085;DHT22;9169;44.492;11.372;2023-02-23T11:49:47;18.80;55.50
18085;DHT22;9169;44.492;11.372;2023-02-23T11:52:20;18.80;55.40
18085;DHT22;9169;44.492;11.372;2023-02-23T11:54:53;18.80;55.90
18085;DHT22;9169;44.492;11.372;2023-02-23T11:57:27;18.80;55.30
18085;DHT22;9169;44.492;11.372;2023-02-23T11:59:57;18.80;55.30
18085;DHT22;9169;44.492;11.372;2023-02-23T12:02:28;18.90;55.40
18085;DHT22;9169;44.492;11.372;2023-02-23T12:05:06;18.90;55.00
18085;DHT22;9169;44.492;11.372;2023-02-23T12:07:37;19.10;54.90
18085;DHT22;9169;44.492;11.372;2023-02-23T12:10:18;19.20;54.70
18085;DHT22;9169;44.492;11.372;2023-02-23T12:13:01;19.20;54.40
18085;DHT22;9169;44.492;11.372;2023-02-23T12:15:37;19.40;54.40
18085;DHT22;9169;44.492;11.372;2023-02-23T12:18:14;19.40;54.20
18085;DHT22;9169;44.492;11.372;2023-02-23T12:20:47;19.50;54.10
18085;DHT22;9169;44.492;11.372;2023-02-23T12:23:23;19.60;53.50
18085;DHT22;9169;44.492;11.372;2023-02-23T12:25:55;19.70;53.30
18085;DHT22;9169;44.492;11.372;2023-02-23T12:28:31;19.70;52.80
18085;DHT22;9169;44.492;11.372;2023-02-23T12:31:05;19.80;52.20
18085;DHT22;9169;44.492;11.372;2023-02-23T12:33:37;19.80;52.30
18085;DHT22;9169;44.492;11.372;2023-02-23T12:36:15;19.80;52.10
18085;DHT22;9169;44.492;11.372;2023-02-23T12:38:50;19.80;52.00
18085;DHT22;9169;44.492;11.372;2023-02-23T12:41:29;19.80;51.50
18085;DHT22;9169;44.492;11.372;2023-02-23T12:44:03;19.90;51.40
18085;DHT22;9169;44.492;11.372;2023-02-23T12:46:44;19.90;51.50
18085;DHT22;9169;44.492;11.372;2023-02-23T12:49:21;19.80;51.60
18085;DHT22;9169;44.492;11.372;2023-02-23T12:51:54;19.80;51.70
18085;DHT22;9169;44.492;11.372;2023-02-23T12:54:25;19.90;51.90
18085;DHT22;9169;44.492;11.372;2023-02-23T12:57:02;20.00;51.90
18085;DHT22;9169;44.492;11.372;2023-02-23T13:00:13;20.10;51.90
18085;DHT22;9169;44.492;11.372;2023-02-23T13:03:04;20.10;51.60
18085;DHT22;9169;44.492;11.372;2023-02-23T13:05:38;20.20;51.80
18085;DHT22;9169;44.492;11.372;2023-02-23T13:08:18;20.30;51.90
18085;DHT22;9169;44.492;11.372;2023-02-23T13:10:53;20.30;51.40
18085;DHT22;9169;44.492;11.372;2023-02-23T13:13:30;20.30;51.30
18085;DHT22;9169;44.492;11.372;2023-02-23T13:16:06;20.40;51.60
18085;DHT22;9169;44.492;11.372;2023-02-23T13:18:42;20.60;51.50
18085;DHT22;9169;44.492;11.372;2023-02-23T13:21:15;20.70;51.30
18085;DHT22;9169;44.492;11.372;2023-02-23T13:23:54;20.80;51.00
18085;DHT22;9169;44.492;11.372;2023-02-23T13:26:29;20.70;50.60
18085;DHT22;9169;44.492;11.372;2023-02-23T13:29:03;20.80;50.70
18085;DHT22;9169;44.492;11.372;2023-02-23T13:31:37;20.80;50.40
18085;DHT22;9169;44.492;11.372;2023-02-23T13:34:10;20.90;50.10
18085;DHT22;9169;44.492;11.372;2023-02-23T13:36:40;20.90;49.90
18085;DHT22;9169;44.492;11.372;2023-02-23T13:39:30;20.90;49.70
18085;DHT22;9169;44.492;11.372;2023-02-23T13:42:14;20.90;49.50
18085;DHT22;9169;44.492;11.372;2023-02-23T13:44:48;20.90;49.50
18085;DHT22;9169;44.492;11.372;2023-02-23T13:47:32;20.90;49.50
18085;DHT22;9169;44.492;11.372;2023-02-23T13:50:13;20.80;49.50
18085;DHT22;9169;44.492;11.372;2023-02-23T13:52:44;20.80;49.60
18085;DHT22;9169;44.492;11.372;2023-02-23T13:58:25;20.70;49.70
18085;DHT22;9169;44.492;11.372;2023-02-23T14:01:10;20.60;49.80
18085;DHT22;9169;44.492;11.372;2023-02-23T14:03:48;20.60;49.80
18085;DHT22;9169;44.492;11.372;2023-02-23T14:06:21;20.50;49.90
18085;DHT22;9169;44.492;11.372;2023-02-23T14:08:54;20.50;50.10
18085;DHT22;9169;44.492;11.372;2023-02-23T14:11:35;20.40;50.20
18085;DHT22;9169;44.492;11.372;2023-02-23T14:14:05;20.30;50.30
18085;DHT22;9169;44.492;11.372;2023-02-23T14:16:33;20.20;50.40
18085;DHT22;9169;44.492;11.372;2023-02-23T14:19:13;20.10;50.40
18085;DHT22;9169;44.492;11.372;2023-02-23T14:21:46;20.00;50.50
18085;DHT22;9169;44.492;11.372;2023-02-23T14:24:20;19.90;50.60
18085;DHT22;9169;44.492;11.372;2023-02-23T14:30:20;19.80;50.90
18085;DHT22;9169;44.492;11.372;2023-02-23T14:32:51;19.60;50.90
18085;DHT22;9169;44.492;11.372;2023-02-23T14:35:42;19.60;51.10
18085;DHT22;9169;44.492;11.372;2023-02-23T14:38:21;19.50;51.20
18085;DHT22;9169;44.492;11.372;2023-02-23T14:41:01;19.40;51.50
18085;DHT22;9169;44.492;11.372;2023-02-23T14:43:38;19.40;51.30
18085;DHT22;9169;44.492;11.372;2023-02-23T14:46:12;19.40;51.40
18085;DHT22;9169;44.492;11.372;2023-02-23T14:48:44;19.30;51.50
18085;DHT22;9169;44.492;11.372;2023-02-23T14:51:21;19.20;51.60
18085;DHT22;9169;44.492;11.372;2023-02-23T14:53:50;19.10;51.60
18085;DHT22;9169;44.492;11.372;2023-02-23T14:56:22;19.10;51.70
18085;DHT22;9169;44.492;11.372;2023-02-23T14:59:01;19.00;51.70
18085;DHT22;9169;44.492;11.372;2023-02-23T15:01:35;19.00;51.90
18085;DHT22;9169;44.492;11.372;2023-02-23T15:04:05;18.90;52.00
18085;DHT22;9169;44.492;11.372;2023-02-23T15:06:36;18.90;52.10
18085;DHT22;9169;44.492;11.372;2023-02-23T15:09:05;18.80;52.10
18085;DHT22;9169;44.492;11.372;2023-02-23T15:11:34;18.80;52.20
18085;DHT22;9169;44.492;11.372;2023-02-23T15:14:03;18.70;52.20
18085;DHT22;9169;44.492;11.372;2023-02-23T15:16:35;18.70;52.20
18085;DHT22;9169;44.492;11.372;2023-02-23T15:19:04;18.60;52.30
18085;DHT22;9169;44.492;11.372;2023-02-23T15:21:35;18.60;52.40
18085;DHT22;9169;44.492;11.372;2023-02-23T15:24:09;18.60;52.50
18085;DHT22;9169;44.492;11.372;2023-02-23T15:26:40;18.50;52.50
18085;DHT22;9169;44.492;11.372;2023-02-23T15:29:13;18.50;52.50
18085;DHT22;9169;44.492;11.372;2023-02-23T15:31:44;18.40;52.50
18085;DHT22;9169;44.492;11.372;2023-02-23T15:34:19;18.40;52.60
18085;DHT22;9169;44.492;11.372;2023-02-23T15:36:53;18.40;52.60
18085;DHT22;9169;44.492;11.372;2023-02-23T15:39:32;18.40;52.60
18085;DHT22;9169;44.492;11.372;2023-02-23T15:42:04;18.30;52.60
18085;DHT22;9169;44.492;11.372;2023-02-23T15:44:34;18.30;52.60
18085;DHT22;9169;44.492;11.372;2023-02-23T15:47:16;18.20;52.60
18085;DHT22;9169;44.492;11.372;2023-02-23T15:49:47;18.20;52.70
18085;DHT22;9169;44.492;11.372;2023-02-23T15:52:21;18.20;52.70
18085;DHT22;9169;44.492;11.372;2023-02-23T15:54:54;18.20;52.80
18085;DHT22;9169;44.492;11.372;2023-02-23T15:57:29;18.20;52.80
18085;DHT22;9169;44.492;11.372;2023-02-23T15:59:59;18.20;52.90
18085;DHT22;9169;44.492;11.372;2023-02-23T16:02:29;18.10;52.80
18085;DHT22;9169;44.492;11.372;2023-02-23T16:05:07;18.10;52.90
18085;DHT22;9169;44.492;11.372;2023-02-23T16:07:40;18.10;53.50
18085;DHT22;9169;44.492;11.372;2023-02-23T16:10:20;18.10;53.00
18085;DHT22;9169;44.492;11.372;2023-02-23T16:12:50;18.00;53.00
18085;DHT22;9169;44.492;11.372;2023-02-23T16:15:24;18.00;53.10
18085;DHT22;9169;44.492;11.372;2023-02-23T16:17:55;18.00;53.20
18085;DHT22;9169;44.492;11.372;2023-02-23T16:20:30;17.90;53.10
18085;DHT22;9169;44.492;11.372;2023-02-23T16:23:04;17.90;53.20
18085;DHT22;9169;44.492;11.372;2023-02-23T16:25:34;17.90;53.20
18085;DHT22;9169;44.492;11.372;2023-02-23T16:28:06;17.90;53.20